LPFL/FLW METAR and TAF weather

Enter ICAO airport designator
Station Type Date Time Source
LPFL METAR 2021/09/16 19:00 UTC NOAA

LPFL 161900Z 36006KT 310V110 9999 SCT005 FEW010TCU 24/21 Q1027


Station Type Date Time Source
LPFL Decoded METAR 2021/09/16 19:00 UTC NOAA

Flores Acores , Portugal (LPFL) 39-27N 031-08W 29M
Sep 16, 2021 - 03:00 PM EDT / 2021.09.16 1900 UTC
Wind: from the N (360 degrees) at 7 MPH (6 KT) (direction variable):0
Visibility: greater than 7 mile(s):0
Sky conditions: partly cloudy
Weather: Towering cumulus clouds observed
Temperature: 75 F (24 C)
Dew Point: 69 F (21 C)
Relative Humidity: 83%
Pressure (altimeter): 30.33 in. Hg (1027 hPa)
ob: LPFL 161900Z 36006KT 310V110 9999 SCT005 FEW010TCU 24/21 Q1027
cycle: 19

Station Type Date Time Source
LPFL TAF UTC NOAA

Error!

Example: see airport list